sensor_id;sensor_type;location;lat;lon;timestamp;pressure;altitude;pressure_sealevel;temperature;humidity
33151;BME280;19508;42.578;23.416;2022-08-19T00:00:48;93484.59;;;20.52;64.13
33151;BME280;19508;42.578;23.416;2022-08-19T00:03:15;93481.06;;;20.52;64.23
33151;BME280;19508;42.578;23.416;2022-08-19T00:05:41;93481.53;;;20.45;64.53
33151;BME280;19508;42.578;23.416;2022-08-19T00:08:07;93485.88;;;20.46;64.33
33151;BME280;19508;42.578;23.416;2022-08-19T00:10:36;93489.88;;;20.49;64.21
33151;BME280;19508;42.578;23.416;2022-08-19T00:13:02;93482.13;;;20.42;64.47
33151;BME280;19508;42.578;23.416;2022-08-19T00:15:29;93484.28;;;20.45;64.54
33151;BME280;19508;42.578;23.416;2022-08-19T00:17:56;93485.38;;;20.36;64.49
33151;BME280;19508;42.578;23.416;2022-08-19T00:20:23;93478.31;;;20.35;65.08
33151;BME280;19508;42.578;23.416;2022-08-19T00:22:49;93485.19;;;20.32;65.16
33151;BME280;19508;42.578;23.416;2022-08-19T00:25:16;93486.31;;;20.22;65.39
33151;BME280;19508;42.578;23.416;2022-08-19T00:27:45;93495.00;;;20.33;65.08
33151;BME280;19508;42.578;23.416;2022-08-19T00:30:13;93497.75;;;20.33;65.09
33151;BME280;19508;42.578;23.416;2022-08-19T00:32:40;93486.19;;;20.19;65.30
33151;BME280;19508;42.578;23.416;2022-08-19T00:35:06;93503.06;;;20.21;65.54
33151;BME280;19508;42.578;23.416;2022-08-19T00:37:33;93493.56;;;20.10;66.07
33151;BME280;19508;42.578;23.416;2022-08-19T00:40:00;93490.19;;;20.13;65.66
33151;BME280;19508;42.578;23.416;2022-08-19T00:42:28;93497.44;;;20.09;65.84
33151;BME280;19508;42.578;23.416;2022-08-19T00:44:58;93496.94;;;20.07;65.81
33151;BME280;19508;42.578;23.416;2022-08-19T00:47:24;93492.59;;;20.06;65.98
33151;BME280;19508;42.578;23.416;2022-08-19T00:49:54;93496.13;;;20.06;65.95
33151;BME280;19508;42.578;23.416;2022-08-19T00:52:26;93482.78;;;20.05;65.82
33151;BME280;19508;42.578;23.416;2022-08-19T00:54:55;93480.06;;;20.05;65.68
33151;BME280;19508;42.578;23.416;2022-08-19T00:57:30;93492.91;;;20.13;65.55
33151;BME280;19508;42.578;23.416;2022-08-19T01:00:06;93495.31;;;20.14;65.43
33151;BME280;19508;42.578;23.416;2022-08-19T01:02:35;93479.25;;;20.04;65.75
33151;BME280;19508;42.578;23.416;2022-08-19T01:05:04;93495.50;;;20.00;65.51
33151;BME280;19508;42.578;23.416;2022-08-19T01:07:33;93483.75;;;19.91;65.90
33151;BME280;19508;42.578;23.416;2022-08-19T01:10:00;93489.53;;;19.98;65.81
33151;BME280;19508;42.578;23.416;2022-08-19T01:12:26;93481.19;;;19.95;66.13
33151;BME280;19508;42.578;23.416;2022-08-19T01:14:53;93482.13;;;19.99;65.78
33151;BME280;19508;42.578;23.416;2022-08-19T01:17:21;93485.53;;;20.05;65.71
33151;BME280;19508;42.578;23.416;2022-08-19T01:19:47;93479.56;;;20.03;65.87
33151;BME280;19508;42.578;23.416;2022-08-19T01:24:47;93472.50;;;19.93;65.71
33151;BME280;19508;42.578;23.416;2022-08-19T01:27:13;93465.72;;;19.82;66.07
33151;BME280;19508;42.578;23.416;2022-08-19T01:29:41;93474.56;;;19.87;65.96
33151;BME280;19508;42.578;23.416;2022-08-19T01:32:09;93470.38;;;19.81;66.43
33151;BME280;19508;42.578;23.416;2022-08-19T01:34:37;93468.94;;;19.75;66.31
33151;BME280;19508;42.578;23.416;2022-08-19T01:37:09;93485.81;;;19.77;66.65
33151;BME280;19508;42.578;23.416;2022-08-19T01:39:38;93477.75;;;19.72;66.85
33151;BME280;19508;42.578;23.416;2022-08-19T01:42:07;93473.41;;;19.62;66.84
33151;BME280;19508;42.578;23.416;2022-08-19T01:44:40;93487.06;;;19.62;67.01
33151;BME280;19508;42.578;23.416;2022-08-19T01:47:23;93484.97;;;19.59;66.83
33151;BME280;19508;42.578;23.416;2022-08-19T01:49:51;93470.63;;;19.54;67.34
33151;BME280;19508;42.578;23.416;2022-08-19T01:52:16;93483.03;;;19.60;67.23
33151;BME280;19508;42.578;23.416;2022-08-19T01:54:42;93481.06;;;19.52;67.43
33151;BME280;19508;42.578;23.416;2022-08-19T01:57:27;93486.69;;;19.55;67.71
33151;BME280;19508;42.578;23.416;2022-08-19T01:59:55;93484.91;;;19.51;67.60
33151;BME280;19508;42.578;23.416;2022-08-19T02:02:22;93476.38;;;19.43;67.51
33151;BME280;19508;42.578;23.416;2022-08-19T02:04:48;93473.16;;;19.41;67.75
33151;BME280;19508;42.578;23.416;2022-08-19T02:07:14;93483.91;;;19.47;67.58
33151;BME280;19508;42.578;23.416;2022-08-19T02:09:40;93470.44;;;19.41;67.90
33151;BME280;19508;42.578;23.416;2022-08-19T02:12:07;93481.50;;;19.45;67.64
33151;BME280;19508;42.578;23.416;2022-08-19T02:14:35;93490.84;;;19.44;67.81
33151;BME280;19508;42.578;23.416;2022-08-19T02:17:02;93481.50;;;19.36;68.27
33151;BME280;19508;42.578;23.416;2022-08-19T02:19:29;93482.75;;;19.30;68.26
33151;BME280;19508;42.578;23.416;2022-08-19T02:21:57;93481.25;;;19.15;68.84
33151;BME280;19508;42.578;23.416;2022-08-19T02:24:22;93478.81;;;19.14;68.78
33151;BME280;19508;42.578;23.416;2022-08-19T02:26:48;93489.13;;;19.17;68.28
33151;BME280;19508;42.578;23.416;2022-08-19T02:29:13;93488.31;;;19.16;68.79
33151;BME280;19508;42.578;23.416;2022-08-19T02:31:39;93490.38;;;19.11;68.91
33151;BME280;19508;42.578;23.416;2022-08-19T02:34:06;93486.41;;;19.17;68.81
33151;BME280;19508;42.578;23.416;2022-08-19T02:36:32;93492.50;;;19.23;68.24
33151;BME280;19508;42.578;23.416;2022-08-19T02:38:58;93472.09;;;19.11;68.57
33151;BME280;19508;42.578;23.416;2022-08-19T02:41:26;93484.06;;;19.02;69.23
33151;BME280;19508;42.578;23.416;2022-08-19T02:43:54;93490.72;;;19.18;68.68
33151;BME280;19508;42.578;23.416;2022-08-19T02:46:33;93491.97;;;19.12;68.75
33151;BME280;19508;42.578;23.416;2022-08-19T02:49:07;93501.38;;;19.28;68.36
33151;BME280;19508;42.578;23.416;2022-08-19T02:51:38;93499.28;;;19.25;68.27
33151;BME280;19508;42.578;23.416;2022-08-19T02:54:04;93490.44;;;19.28;67.78
33151;BME280;19508;42.578;23.416;2022-08-19T02:56:31;93482.38;;;19.14;67.20
33151;BME280;19508;42.578;23.416;2022-08-19T02:59:01;93484.38;;;19.31;66.75
33151;BME280;19508;42.578;23.416;2022-08-19T03:01:30;93493.56;;;19.44;66.53
33151;BME280;19508;42.578;23.416;2022-08-19T03:03:57;93485.41;;;19.53;66.11
33151;BME280;19508;42.578;23.416;2022-08-19T03:06:23;93496.06;;;19.63;65.83
33151;BME280;19508;42.578;23.416;2022-08-19T03:08:49;93491.34;;;19.55;66.07
33151;BME280;19508;42.578;23.416;2022-08-19T03:11:21;93491.34;;;19.55;66.39
33151;BME280;19508;42.578;23.416;2022-08-19T03:13:47;93494.06;;;19.55;66.40
33151;BME280;19508;42.578;23.416;2022-08-19T03:16:14;93483.59;;;19.48;66.39
33151;BME280;19508;42.578;23.416;2022-08-19T03:18:41;93483.31;;;19.50;66.13
33151;BME280;19508;42.578;23.416;2022-08-19T03:21:08;93497.75;;;19.50;66.34
33151;BME280;19508;42.578;23.416;2022-08-19T03:23:39;93495.97;;;19.45;66.86
33151;BME280;19508;42.578;23.416;2022-08-19T03:26:05;93479.19;;;19.21;66.61
33151;BME280;19508;42.578;23.416;2022-08-19T03:28:31;93475.97;;;19.19;66.67
33151;BME280;19508;42.578;23.416;2022-08-19T03:31:09;93481.78;;;19.26;67.24
33151;BME280;19508;42.578;23.416;2022-08-19T03:33:36;93488.06;;;19.35;66.62
33151;BME280;19508;42.578;23.416;2022-08-19T03:36:25;93492.09;;;19.38;66.84
33151;BME280;19508;42.578;23.416;2022-08-19T03:38:54;93495.47;;;19.35;66.72
33151;BME280;19508;42.578;23.416;2022-08-19T03:41:28;93489.28;;;19.21;66.81
33151;BME280;19508;42.578;23.416;2022-08-19T03:43:55;93488.19;;;19.30;66.77
33151;BME280;19508;42.578;23.416;2022-08-19T03:46:28;93492.06;;;19.29;67.71
33151;BME280;19508;42.578;23.416;2022-08-19T03:48:55;93501.06;;;19.38;66.65
33151;BME280;19508;42.578;23.416;2022-08-19T03:51:34;93506.03;;;19.28;67.00
33151;BME280;19508;42.578;23.416;2022-08-19T03:54:02;93512.00;;;19.38;67.41
33151;BME280;19508;42.578;23.416;2022-08-19T03:56:29;93499.34;;;19.42;66.97
33151;BME280;19508;42.578;23.416;2022-08-19T03:59:13;93508.03;;;19.53;66.81
33151;BME280;19508;42.578;23.416;2022-08-19T04:01:39;93508.97;;;19.40;66.54
33151;BME280;19508;42.578;23.416;2022-08-19T04:04:05;93517.53;;;19.56;65.90
33151;BME280;19508;42.578;23.416;2022-08-19T04:06:34;93517.28;;;19.66;65.63
33151;BME280;19508;42.578;23.416;2022-08-19T04:09:03;93512.31;;;19.68;65.69
33151;BME280;19508;42.578;23.416;2022-08-19T04:11:51;93526.81;;;19.86;65.21
33151;BME280;19508;42.578;23.416;2022-08-19T04:14:24;93512.00;;;19.78;65.28
33151;BME280;19508;42.578;23.416;2022-08-19T04:16:50;93528.09;;;19.97;64.72
33151;BME280;19508;42.578;23.416;2022-08-19T04:19:20;93532.97;;;20.09;64.73
33151;BME280;19508;42.578;23.416;2022-08-19T04:21:48;93527.50;;;20.17;64.40
33151;BME280;19508;42.578;23.416;2022-08-19T04:24:14;93523.16;;;20.25;64.11
33151;BME280;19508;42.578;23.416;2022-08-19T04:26:40;93527.34;;;20.31;63.74
33151;BME280;19508;42.578;23.416;2022-08-19T04:29:16;93516.88;;;20.33;63.07
33151;BME280;19508;42.578;23.416;2022-08-19T04:31:43;93537.84;;;20.55;62.95
33151;BME280;19508;42.578;23.416;2022-08-19T04:34:11;93533.00;;;20.69;62.60
33151;BME280;19508;42.578;23.416;2022-08-19T04:36:40;93529.13;;;20.88;62.50
33151;BME280;19508;42.578;23.416;2022-08-19T04:39:14;93531.50;;;21.06;61.42
33151;BME280;19508;42.578;23.416;2022-08-19T04:41:40;93533.03;;;21.25;60.86
33151;BME280;19508;42.578;23.416;2022-08-19T04:44:25;93521.22;;;21.50;60.00
33151;BME280;19508;42.578;23.416;2022-08-19T04:46:51;93521.66;;;21.61;59.48
33151;BME280;19508;42.578;23.416;2022-08-19T04:49:19;93526.25;;;21.78;58.44
33151;BME280;19508;42.578;23.416;2022-08-19T04:51:47;93517.38;;;21.81;58.76
33151;BME280;19508;42.578;23.416;2022-08-19T04:54:13;93523.16;;;21.88;58.14
33151;BME280;19508;42.578;23.416;2022-08-19T04:56:40;93529.56;;;21.92;57.74
33151;BME280;19508;42.578;23.416;2022-08-19T04:59:06;93523.56;;;22.07;57.50
33151;BME280;19508;42.578;23.416;2022-08-19T05:01:34;93520.13;;;22.10;57.35
33151;BME280;19508;42.578;23.416;2022-08-19T05:04:02;93527.78;;;22.26;57.65
33151;BME280;19508;42.578;23.416;2022-08-19T05:06:31;93530.06;;;22.44;57.30
33151;BME280;19508;42.578;23.416;2022-08-19T05:09:00;93527.69;;;22.55;57.12
33151;BME280;19508;42.578;23.416;2022-08-19T05:11:28;93530.97;;;22.69;57.15
33151;BME280;19508;42.578;23.416;2022-08-19T05:13:55;93531.25;;;22.76;56.87
33151;BME280;19508;42.578;23.416;2022-08-19T05:16:23;93530.50;;;22.88;57.74
33151;BME280;19508;42.578;23.416;2022-08-19T05:18:49;93535.00;;;22.93;57.21
33151;BME280;19508;42.578;23.416;2022-08-19T05:21:34;93536.97;;;22.92;56.86
33151;BME280;19508;42.578;23.416;2022-08-19T05:24:19;93535.50;;;23.07;56.72
33151;BME280;19508;42.578;23.416;2022-08-19T05:26:48;93532.16;;;23.34;56.94
33151;BME280;19508;42.578;23.416;2022-08-19T05:29:16;93531.47;;;23.50;56.14
33151;BME280;19508;42.578;23.416;2022-08-19T05:31:43;93528.78;;;23.74;56.46
33151;BME280;19508;42.578;23.416;2022-08-19T05:34:09;93528.13;;;23.89;55.92
33151;BME280;19508;42.578;23.416;2022-08-19T05:36:41;93527.31;;;24.01;54.88
33151;BME280;19508;42.578;23.416;2022-08-19T05:39:12;93528.44;;;24.25;55.02
33151;BME280;19508;42.578;23.416;2022-08-19T05:41:46;93512.72;;;24.50;54.40
33151;BME280;19508;42.578;23.416;2022-08-19T05:44:13;93519.09;;;24.66;54.15
33151;BME280;19508;42.578;23.416;2022-08-19T05:46:39;93518.66;;;24.64;53.98
33151;BME280;19508;42.578;23.416;2022-08-19T05:49:06;93532.06;;;24.93;53.45
33151;BME280;19508;42.578;23.416;2022-08-19T05:51:34;93526.03;;;25.16;53.48
33151;BME280;19508;42.578;23.416;2022-08-19T05:54:01;93525.31;;;25.47;52.29
33151;BME280;19508;42.578;23.416;2022-08-19T05:56:27;93528.81;;;25.75;51.56
33151;BME280;19508;42.578;23.416;2022-08-19T05:58:52;93524.19;;;25.79;51.07
33151;BME280;19508;42.578;23.416;2022-08-19T06:01:19;93531.09;;;26.05;50.26
33151;BME280;19508;42.578;23.416;2022-08-19T06:03:45;93528.94;;;26.30;50.52
33151;BME280;19508;42.578;23.416;2022-08-19T06:06:14;93525.22;;;26.57;50.56
33151;BME280;19508;42.578;23.416;2022-08-19T06:08:47;93529.06;;;26.68;48.42
33151;BME280;19508;42.578;23.416;2022-08-19T06:11:22;93525.47;;;27.03;48.98
33151;BME280;19508;42.578;23.416;2022-08-19T06:13:51;93527.59;;;27.33;47.89
33151;BME280;19508;42.578;23.416;2022-08-19T06:16:21;93527.41;;;27.64;46.65
33151;BME280;19508;42.578;23.416;2022-08-19T06:18:51;93532.22;;;27.90;46.98
33151;BME280;19508;42.578;23.416;2022-08-19T06:21:22;93528.03;;;28.23;47.33
33151;BME280;19508;42.578;23.416;2022-08-19T06:23:49;93539.44;;;28.44;45.92
33151;BME280;19508;42.578;23.416;2022-08-19T06:26:16;93535.78;;;28.89;44.81
33151;BME280;19508;42.578;23.416;2022-08-19T06:28:42;93524.34;;;29.25;43.64
33151;BME280;19508;42.578;23.416;2022-08-19T06:31:13;93527.06;;;29.55;42.73
33151;BME280;19508;42.578;23.416;2022-08-19T06:33:40;93523.03;;;29.89;42.87
33151;BME280;19508;42.578;23.416;2022-08-19T06:36:21;93529.34;;;30.27;40.83
33151;BME280;19508;42.578;23.416;2022-08-19T06:38:49;93529.84;;;30.40;40.17
33151;BME280;19508;42.578;23.416;2022-08-19T06:41:15;93527.09;;;30.47;39.58
33151;BME280;19508;42.578;23.416;2022-08-19T06:43:40;93532.72;;;30.57;39.64
33151;BME280;19508;42.578;23.416;2022-08-19T06:46:13;93531.31;;;30.81;40.31
33151;BME280;19508;42.578;23.416;2022-08-19T06:48:39;93521.97;;;31.14;39.32
33151;BME280;19508;42.578;23.416;2022-08-19T06:51:04;93523.13;;;31.10;40.44
33151;BME280;19508;42.578;23.416;2022-08-19T06:53:31;93517.66;;;31.24;39.56
33151;BME280;19508;42.578;23.416;2022-08-19T06:55:57;93527.72;;;31.57;38.59
33151;BME280;19508;42.578;23.416;2022-08-19T06:58:31;93519.84;;;31.91;37.90
33151;BME280;19508;42.578;23.416;2022-08-19T07:01:03;93529.41;;;32.01;37.21
33151;BME280;19508;42.578;23.416;2022-08-19T07:03:31;93531.41;;;32.11;37.36
33151;BME280;19508;42.578;23.416;2022-08-19T07:06:02;93529.44;;;32.37;38.01
33151;BME280;19508;42.578;23.416;2022-08-19T07:08:27;93533.44;;;32.57;36.47
33151;BME280;19508;42.578;23.416;2022-08-19T07:10:53;93535.00;;;32.65;36.11
33151;BME280;19508;42.578;23.416;2022-08-19T07:13:18;93533.78;;;32.80;36.34
33151;BME280;19508;42.578;23.416;2022-08-19T07:15:44;93529.78;;;32.96;34.48
33151;BME280;19508;42.578;23.416;2022-08-19T07:18:11;93531.72;;;33.13;35.07
33151;BME280;19508;42.578;23.416;2022-08-19T07:20:49;93538.09;;;33.17;35.04
33151;BME280;19508;42.578;23.416;2022-08-19T07:23:15;93539.25;;;33.23;34.87
33151;BME280;19508;42.578;23.416;2022-08-19T07:25:40;93531.28;;;33.29;33.69
33151;BME280;19508;42.578;23.416;2022-08-19T07:28:06;93527.59;;;33.57;33.47
33151;BME280;19508;42.578;23.416;2022-08-19T07:30:37;93537.19;;;33.49;33.00
33151;BME280;19508;42.578;23.416;2022-08-19T07:33:02;93534.97;;;33.01;35.24
33151;BME280;19508;42.578;23.416;2022-08-19T07:35:28;93542.94;;;32.88;32.83
33151;BME280;19508;42.578;23.416;2022-08-19T07:37:53;93539.72;;;33.11;32.84
33151;BME280;19508;42.578;23.416;2022-08-19T07:40:19;93534.81;;;33.51;33.27
33151;BME280;19508;42.578;23.416;2022-08-19T07:42:44;93531.56;;;33.63;33.86
33151;BME280;19508;42.578;23.416;2022-08-19T07:45:10;93541.63;;;33.35;34.58
33151;BME280;19508;42.578;23.416;2022-08-19T07:47:35;93524.44;;;33.51;33.38
33151;BME280;19508;42.578;23.416;2022-08-19T07:50:01;93533.13;;;33.64;33.57
33151;BME280;19508;42.578;23.416;2022-08-19T07:52:29;93532.03;;;33.51;33.75
33151;BME280;19508;42.578;23.416;2022-08-19T07:54:55;93519.97;;;33.64;34.50
33151;BME280;19508;42.578;23.416;2022-08-19T07:57:20;93534.00;;;33.54;32.91
33151;BME280;19508;42.578;23.416;2022-08-19T07:59:45;93532.31;;;33.71;34.56
33151;BME280;19508;42.578;23.416;2022-08-19T08:02:11;93533.41;;;33.87;32.67
33151;BME280;19508;42.578;23.416;2022-08-19T08:04:36;93530.19;;;33.92;32.42
33151;BME280;19508;42.578;23.416;2022-08-19T08:07:20;93533.31;;;34.05;31.76
33151;BME280;19508;42.578;23.416;2022-08-19T08:10:06;93533.66;;;34.14;32.31
33151;BME280;19508;42.578;23.416;2022-08-19T08:12:35;93542.25;;;34.41;31.92
33151;BME280;19508;42.578;23.416;2022-08-19T08:15:06;93531.88;;;34.42;32.44
33151;BME280;19508;42.578;23.416;2022-08-19T08:17:33;93522.31;;;34.39;32.65
33151;BME280;19508;42.578;23.416;2022-08-19T08:19:59;93522.56;;;34.56;32.10
33151;BME280;19508;42.578;23.416;2022-08-19T08:22:25;93519.03;;;34.96;31.81
33151;BME280;19508;42.578;23.416;2022-08-19T08:25:14;93520.84;;;34.69;31.10
33151;BME280;19508;42.578;23.416;2022-08-19T08:27:42;93524.78;;;34.78;30.41
33151;BME280;19508;42.578;23.416;2022-08-19T08:30:10;93507.13;;;35.23;32.05
33151;BME280;19508;42.578;23.416;2022-08-19T08:32:40;93522.00;;;35.50;30.37
33151;BME280;19508;42.578;23.416;2022-08-19T08:35:09;93514.44;;;35.78;29.05
33151;BME280;19508;42.578;23.416;2022-08-19T08:37:35;93515.09;;;35.58;28.43
33151;BME280;19508;42.578;23.416;2022-08-19T08:40:17;93510.31;;;35.86;27.41
33151;BME280;19508;42.578;23.416;2022-08-19T08:42:51;93509.53;;;35.85;26.73
33151;BME280;19508;42.578;23.416;2022-08-19T08:45:20;93503.13;;;35.85;26.23
33151;BME280;19508;42.578;23.416;2022-08-19T08:47:48;93514.22;;;35.65;28.71
33151;BME280;19508;42.578;23.416;2022-08-19T08:50:41;93513.72;;;35.74;26.24
33151;BME280;19508;42.578;23.416;2022-08-19T08:53:07;93503.19;;;35.81;26.34
33151;BME280;19508;42.578;23.416;2022-08-19T08:55:34;93503.91;;;35.89;26.34
33151;BME280;19508;42.578;23.416;2022-08-19T08:58:04;93504.47;;;36.04;26.11
33151;BME280;19508;42.578;23.416;2022-08-19T09:00:34;93499.09;;;36.16;26.04
33151;BME280;19508;42.578;23.416;2022-08-19T09:03:01;93495.63;;;36.09;26.58
33151;BME280;19508;42.578;23.416;2022-08-19T09:06:11;93499.56;;;36.11;27.51
33151;BME280;19508;42.578;23.416;2022-08-19T09:17:16;93490.69;;;36.16;26.54
33151;BME280;19508;42.578;23.416;2022-08-19T09:22:21;93489.53;;;36.41;23.44
33151;BME280;19508;42.578;23.416;2022-08-19T09:24:51;93492.28;;;36.17;24.88
33151;BME280;19508;42.578;23.416;2022-08-19T09:27:20;93487.94;;;36.63;23.94
33151;BME280;19508;42.578;23.416;2022-08-19T09:29:49;93484.44;;;36.56;24.70
33151;BME280;19508;42.578;23.416;2022-08-19T09:32:15;93477.84;;;36.66;23.29
33151;BME280;19508;42.578;23.416;2022-08-19T09:34:40;93480.91;;;36.75;25.58
33151;BME280;19508;42.578;23.416;2022-08-19T09:37:06;93474.94;;;36.73;25.20
33151;BME280;19508;42.578;23.416;2022-08-19T09:39:32;93472.19;;;36.93;22.97
33151;BME280;19508;42.578;23.416;2022-08-19T09:41:57;93458.78;;;37.44;24.04
33151;BME280;19508;42.578;23.416;2022-08-19T09:44:23;93477.59;;;36.84;22.43
33151;BME280;19508;42.578;23.416;2022-08-19T09:46:49;93467.47;;;37.30;23.01
33151;BME280;19508;42.578;23.416;2022-08-19T09:49:19;93459.31;;;37.15;22.74
33151;BME280;19508;42.578;23.416;2022-08-19T09:51:49;93462.84;;;36.99;23.71
33151;BME280;19508;42.578;23.416;2022-08-19T09:54:15;93458.47;;;37.18;23.07
33151;BME280;19508;42.578;23.416;2022-08-19T09:56:40;93460.50;;;37.38;23.45
33151;BME280;19508;42.578;23.416;2022-08-19T09:59:06;93455.28;;;37.56;22.73
33151;BME280;19508;42.578;23.416;2022-08-19T10:01:32;93447.47;;;37.83;23.04
33151;BME280;19508;42.578;23.416;2022-08-19T10:03:59;93445.47;;;37.84;22.49
33151;BME280;19508;42.578;23.416;2022-08-19T10:06:27;93443.13;;;37.99;22.16
33151;BME280;19508;42.578;23.416;2022-08-19T10:08:55;93436.69;;;37.98;21.71
33151;BME280;19508;42.578;23.416;2022-08-19T10:11:21;93438.59;;;37.49;22.37
33151;BME280;19508;42.578;23.416;2022-08-19T10:13:47;93442.47;;;37.55;22.18
33151;BME280;19508;42.578;23.416;2022-08-19T10:16:15;93438.44;;;37.56;22.73
33151;BME280;19508;42.578;23.416;2022-08-19T10:18:42;93426.94;;;37.50;22.74
33151;BME280;19508;42.578;23.416;2022-08-19T10:21:14;93432.94;;;37.69;22.81
33151;BME280;19508;42.578;23.416;2022-08-19T10:23:43;93428.78;;;37.57;23.32
33151;BME280;19508;42.578;23.416;2022-08-19T10:26:15;93428.34;;;37.78;24.05
33151;BME280;19508;42.578;23.416;2022-08-19T10:28:42;93421.84;;;37.45;22.95
33151;BME280;19508;42.578;23.416;2022-08-19T10:31:11;93422.63;;;37.82;23.98
33151;BME280;19508;42.578;23.416;2022-08-19T10:33:48;93421.19;;;37.74;21.34
33151;BME280;19508;42.578;23.416;2022-08-19T10:36:19;93421.94;;;37.78;22.73
33151;BME280;19508;42.578;23.416;2022-08-19T10:38:46;93417.13;;;37.59;22.21
33151;BME280;19508;42.578;23.416;2022-08-19T10:41:17;93418.81;;;37.72;21.78
33151;BME280;19508;42.578;23.416;2022-08-19T10:43:43;93409.03;;;37.80;21.83
33151;BME280;19508;42.578;23.416;2022-08-19T10:46:12;93430.28;;;37.98;22.93
33151;BME280;19508;42.578;23.416;2022-08-19T10:48:38;93418.81;;;37.72;22.12
33151;BME280;19508;42.578;23.416;2022-08-19T10:51:04;93415.63;;;38.06;22.03
33151;BME280;19508;42.578;23.416;2022-08-19T10:53:49;93409.91;;;37.77;22.14
33151;BME280;19508;42.578;23.416;2022-08-19T10:56:15;93416.06;;;37.89;21.32
33151;BME280;19508;42.578;23.416;2022-08-19T10:58:59;93408.63;;;37.62;21.77
33151;BME280;19508;42.578;23.416;2022-08-19T11:01:26;93413.50;;;37.78;21.64
33151;BME280;19508;42.578;23.416;2022-08-19T11:03:52;93415.28;;;37.52;21.45
33151;BME280;19508;42.578;23.416;2022-08-19T11:06:18;93404.56;;;37.27;21.69
33151;BME280;19508;42.578;23.416;2022-08-19T11:08:44;93414.50;;;37.12;21.84
33151;BME280;19508;42.578;23.416;2022-08-19T11:11:10;93411.63;;;37.35;21.81
33151;BME280;19508;42.578;23.416;2022-08-19T11:13:38;93413.53;;;37.58;23.50
33151;BME280;19508;42.578;23.416;2022-08-19T11:16:09;93406.88;;;37.68;21.76
33151;BME280;19508;42.578;23.416;2022-08-19T11:18:37;93401.75;;;37.47;21.50
33151;BME280;19508;42.578;23.416;2022-08-19T11:21:27;93400.88;;;37.50;24.48
33151;BME280;19508;42.578;23.416;2022-08-19T11:23:55;93416.84;;;37.89;22.01
33151;BME280;19508;42.578;23.416;2022-08-19T11:26:23;93408.59;;;37.98;21.45
33151;BME280;19508;42.578;23.416;2022-08-19T11:28:49;93403.94;;;38.08;20.76
33151;BME280;19508;42.578;23.416;2022-08-19T11:31:24;93398.31;;;38.08;23.14
33151;BME280;19508;42.578;23.416;2022-08-19T11:33:50;93384.28;;;38.08;23.35
33151;BME280;19508;42.578;23.416;2022-08-19T11:36:17;93387.97;;;38.05;22.90
33151;BME280;19508;42.578;23.416;2022-08-19T11:38:44;93389.97;;;38.37;22.22
33151;BME280;19508;42.578;23.416;2022-08-19T11:41:10;93379.72;;;38.47;21.46
33151;BME280;19508;42.578;23.416;2022-08-19T11:43:36;93383.19;;;38.51;21.25
33151;BME280;19508;42.578;23.416;2022-08-19T11:46:06;93380.41;;;38.34;22.03
33151;BME280;19508;42.578;23.416;2022-08-19T11:48:35;93376.28;;;38.39;21.25
33151;BME280;19508;42.578;23.416;2022-08-19T11:51:05;93376.69;;;38.54;22.85
33151;BME280;19508;42.578;23.416;2022-08-19T11:53:31;93376.09;;;38.46;21.24
33151;BME280;19508;42.578;23.416;2022-08-19T11:55:57;93373.75;;;38.12;21.30
33151;BME280;19508;42.578;23.416;2022-08-19T11:58:23;93370.75;;;38.19;22.46
33151;BME280;19508;42.578;23.416;2022-08-19T12:00:50;93377.25;;;38.32;21.26
33151;BME280;19508;42.578;23.416;2022-08-19T12:03:15;93371.47;;;38.40;20.81
33151;BME280;19508;42.578;23.416;2022-08-19T12:05:41;93366.50;;;38.44;21.79
33151;BME280;19508;42.578;23.416;2022-08-19T12:08:07;93358.81;;;38.77;21.59
33151;BME280;19508;42.578;23.416;2022-08-19T12:10:33;93353.09;;;38.80;22.46
33151;BME280;19508;42.578;23.416;2022-08-19T12:12:59;93351.16;;;38.77;21.62
33151;BME280;19508;42.578;23.416;2022-08-19T12:15:26;93350.81;;;38.75;21.47
33151;BME280;19508;42.578;23.416;2022-08-19T12:17:52;93360.31;;;38.65;21.58
33151;BME280;19508;42.578;23.416;2022-08-19T12:20:20;93343.00;;;38.37;20.83
33151;BME280;19508;42.578;23.416;2022-08-19T12:22:46;93343.03;;;38.50;21.73
33151;BME280;19508;42.578;23.416;2022-08-19T12:25:11;93339.13;;;38.31;21.74
33151;BME280;19508;42.578;23.416;2022-08-19T12:27:37;93336.66;;;38.79;21.82
33151;BME280;19508;42.578;23.416;2022-08-19T12:30:05;93339.50;;;38.91;20.65
33151;BME280;19508;42.578;23.416;2022-08-19T12:32:31;93331.16;;;39.17;20.04
33151;BME280;19508;42.578;23.416;2022-08-19T12:34:57;93332.72;;;39.18;21.48
33151;BME280;19508;42.578;23.416;2022-08-19T12:37:22;93332.06;;;39.52;20.24
33151;BME280;19508;42.578;23.416;2022-08-19T12:39:48;93325.53;;;39.81;19.26
33151;BME280;19508;42.578;23.416;2022-08-19T12:42:14;93331.66;;;40.39;21.35
33151;BME280;19508;42.578;23.416;2022-08-19T12:44:41;93327.16;;;40.98;18.66
33151;BME280;19508;42.578;23.416;2022-08-19T12:47:11;93312.25;;;40.98;19.11
33151;BME280;19508;42.578;23.416;2022-08-19T12:49:36;93311.94;;;41.27;18.67
33151;BME280;19508;42.578;23.416;2022-08-19T12:52:04;93312.69;;;41.40;18.48
33151;BME280;19508;42.578;23.416;2022-08-19T12:54:30;93319.53;;;41.30;18.72
33151;BME280;19508;42.578;23.416;2022-08-19T12:56:57;93312.16;;;41.10;19.61
33151;BME280;19508;42.578;23.416;2022-08-19T12:59:23;93314.94;;;41.01;19.38
33151;BME280;19508;42.578;23.416;2022-08-19T13:01:48;93311.00;;;40.77;19.08
33151;BME280;19508;42.578;23.416;2022-08-19T13:04:14;93305.06;;;40.84;19.83
33151;BME280;19508;42.578;23.416;2022-08-19T13:06:41;93310.09;;;40.11;19.29
33151;BME280;19508;42.578;23.416;2022-08-19T13:09:07;93314.50;;;39.73;20.30
33151;BME280;19508;42.578;23.416;2022-08-19T13:11:32;93309.66;;;39.23;21.49